Time;durP1;ratioP1;P1;durP2;ratioP2;P2;SDS_P1;SDS_P2;PMS_P1;PMS_P2;Temp;Humidity;BMP_temperature;BMP_pressure;BME280_temperature;BME280_humidity;BME280_pressure;Samples;Min_cycle;Max_cycle;Signal;HPM_P1;HPM_P2
2024/02/07 00:01:53;;;;;;;8.82;0.40;;;6.10;99.90;;;;;;4942004;29;20155;-78
2024/02/07 00:04:19;;;;;;;3.30;0.55;;;6.10;99.90;;;;;;4942116;29;20051;-78
2024/02/07 00:06:44;;;;;;;2.90;0.00;;;6.10;99.90;;;;;;4942959;29;20004;-79
2024/02/07 00:09:10;;;;;;;2.75;0.00;;;6.10;99.90;;;;;;4942236;29;20031;-79
2024/02/07 00:11:36;;;;;;;3.70;0.00;;;6.10;99.90;;;;;;4943112;29;20031;-79
2024/02/07 00:14:02;;;;;;;0.95;0.10;;;7.80;99.90;;;;;;4940510;29;20071;-78
2024/02/07 00:16:27;;;;;;;1.88;0.00;;;6.10;99.90;;;;;;4939613;29;20115;-78
2024/02/07 00:18:53;;;;;;;4.47;0.00;;;6.10;99.90;;;;;;4941594;29;20023;-79
2024/02/07 00:21:19;;;;;;;2.92;0.00;;;6.10;99.90;;;;;;4942870;29;20031;-78
2024/02/07 00:23:44;;;;;;;3.45;0.00;;;8.50;99.90;;;;;;4939293;29;20604;-78
2024/02/07 00:26:10;;;;;;;2.80;0.00;;;6.20;99.90;;;;;;4940681;29;20050;-79
2024/02/07 00:28:36;;;;;;;1.35;0.00;;;6.40;99.90;;;;;;4942303;29;20087;-79
2024/02/07 00:31:04;;;;;;;5.72;0.10;;;6.80;99.90;;;;;;4940532;29;20028;-79
2024/02/07 00:33:29;;;;;;;2.28;0.00;;;6.10;99.90;;;;;;4939643;29;20510;-78
2024/02/07 00:35:55;;;;;;;3.30;0.32;;;6.10;99.90;;;;;;4940933;29;20019;-79
2024/02/07 00:38:21;;;;;;;1.90;0.13;;;6.10;99.90;;;;;;4939780;29;20479;-78
2024/02/07 00:40:46;;;;;;;2.20;0.00;;;6.20;99.90;;;;;;4940132;29;20108;-79
2024/02/07 00:43:14;;;;;;;2.63;0.00;;;6.20;99.90;;;;;;4939729;29;20020;-78
2024/02/07 00:45:40;;;;;;;1.67;0.00;;;6.20;99.90;;;;;;4939889;29;20028;-78
2024/02/07 00:48:06;;;;;;;1.65;0.25;;;6.20;99.90;;;;;;4939576;29;20028;-78
2024/02/07 00:50:32;;;;;;;6.22;0.00;;;6.10;99.90;;;;;;4938928;29;20106;-78
2024/02/07 00:52:57;;;;;;;5.15;0.00;;;6.10;99.90;;;;;;4937667;29;20031;-78
2024/02/07 00:55:23;;;;;;;2.78;0.00;;;6.00;99.90;;;;;;4938786;29;20020;-78
2024/02/07 00:57:49;;;;;;;6.05;0.43;;;6.00;99.90;;;;;;4938694;29;20031;-78
2024/02/07 01:00:15;;;;;;;0.20;0.00;;;5.90;99.90;;;;;;4937785;29;20090;-78
2024/02/07 01:02:41;;;;;;;6.85;0.13;;;5.90;99.90;;;;;;4938620;29;20060;-78
2024/02/07 01:05:08;;;;;;;2.80;0.00;;;5.90;99.90;;;;;;4937668;29;20028;-78
2024/02/07 01:07:34;;;;;;;2.95;0.03;;;5.90;99.90;;;;;;4938844;29;20111;-78
2024/02/07 01:10:00;;;;;;;2.67;0.40;;;5.90;99.90;;;;;;4937538;29;20071;-78
2024/02/07 01:12:26;;;;;;;7.13;0.00;;;5.90;99.90;;;;;;4940282;29;20020;-78
2024/02/07 01:14:52;;;;;;;4.43;0.00;;;5.80;99.90;;;;;;4938250;29;20075;-79
2024/02/07 01:17:18;;;;;;;5.35;0.40;;;5.80;99.90;;;;;;4938948;29;20384;-79
2024/02/07 01:19:44;;;;;;;4.07;0.28;;;5.90;99.90;;;;;;4939480;29;20051;-79
2024/02/07 01:22:10;;;;;;;3.72;0.10;;;6.80;99.90;;;;;;4937597;29;20020;-78
2024/02/07 01:24:36;;;;;;;4.65;0.30;;;5.80;99.90;;;;;;4937844;29;20031;-79
2024/02/07 01:27:04;;;;;;;3.75;0.00;;;5.80;99.90;;;;;;4938222;29;20024;-79
2024/02/07 01:29:30;;;;;;;8.10;0.00;;;5.80;99.90;;;;;;4940128;29;20071;-79
2024/02/07 01:31:56;;;;;;;5.32;0.22;;;5.80;99.90;;;;;;4938839;29;20027;-79
2024/02/07 01:34:22;;;;;;;3.92;0.28;;;5.80;99.90;;;;;;4937770;29;20023;-79
2024/02/07 01:36:48;;;;;;;5.45;0.00;;;5.80;99.90;;;;;;4937149;29;20480;-79
2024/02/07 01:39:18;;;;;;;12.68;1.00;;;5.80;99.90;;;;;;4938639;29;20019;-79
2024/02/07 01:41:56;;;;;;;4.90;0.08;;;5.80;99.90;;;;;;4939148;29;20110;-79
2024/02/07 01:44:22;;;;;;;5.25;0.03;;;5.80;99.90;;;;;;4938024;29;20023;-78
2024/02/07 01:46:49;;;;;;;9.43;0.10;;;5.70;99.90;;;;;;4937895;29;20039;-78
2024/02/07 01:49:15;;;;;;;7.68;0.65;;;6.70;99.90;;;;;;4937839;29;20037;-78
2024/02/07 01:51:42;;;;;;;2.03;0.00;;;5.60;99.90;;;;;;4937118;29;20031;-79
2024/02/07 01:54:08;;;;;;;4.82;0.22;;;6.80;99.90;;;;;;4937441;29;20495;-79
2024/02/07 01:56:34;;;;;;;10.82;0.00;;;5.50;99.90;;;;;;4938074;29;20034;-79
2024/02/07 01:59:05;;;;;;;3.10;0.00;;;5.50;99.90;;;;;;4937650;29;20031;-79
2024/02/07 02:01:36;;;;;;;4.78;0.08;;;5.50;99.90;;;;;;4936907;29;20199;-79
2024/02/07 02:04:02;;;;;;;7.88;0.20;;;5.40;99.90;;;;;;4937593;29;20062;-80
2024/02/07 02:06:28;;;;;;;2.50;0.10;;;5.40;99.90;;;;;;4939311;29;20032;-81
2024/02/07 02:08:54;;;;;;;2.20;0.00;;;5.40;99.90;;;;;;4938028;29;20071;-80
2024/02/07 02:11:29;;;;;;;4.13;0.13;;;7.50;99.90;;;;;;4937134;29;20082;-80
2024/02/07 02:13:55;;;;;;;4.75;0.35;;;5.40;99.90;;;;;;4937654;29;20102;-80
2024/02/07 02:16:21;;;;;;;4.10;0.00;;;5.30;99.90;;;;;;4938011;29;20047;-81
2024/02/07 02:18:46;;;;;;;4.72;0.20;;;5.50;99.90;;;;;;4938679;29;20020;-80
2024/02/07 02:21:21;;;;;;;4.97;0.00;;;5.30;99.90;;;;;;4937646;29;20039;-80
2024/02/07 02:24:18;;;;;;;1.45;0.00;;;5.40;99.90;;;;;;4938754;29;20027;-80
2024/02/07 02:31:56;;;;;;;2.10;0.00;;;5.30;99.90;;;;;;5583177;23;20061;-80
2024/02/07 02:34:22;;;;;;;3.63;0.30;;;6.30;99.90;;;;;;5000135;28;20027;-80
2024/02/07 02:36:49;;;;;;;6.35;0.55;;;5.20;99.90;;;;;;4999155;28;20018;-80
2024/02/07 02:39:14;;;;;;;4.18;0.57;;;5.20;99.90;;;;;;5000367;28;20018;-80
2024/02/07 02:41:40;;;;;;;3.95;0.03;;;5.10;99.90;;;;;;5001091;28;20029;-80
2024/02/07 02:44:06;;;;;;;4.07;0.00;;;5.00;99.90;;;;;;5000249;28;20030;-80
2024/02/07 02:46:32;;;;;;;9.13;0.45;;;5.00;99.90;;;;;;4998707;28;20019;-80
2024/02/07 02:48:57;;;;;;;4.85;0.00;;;5.00;99.90;;;;;;4998770;28;20482;-80
2024/02/07 02:51:24;;;;;;;5.57;0.93;;;5.00;99.90;;;;;;4998407;28;20038;-80
2024/02/07 02:53:49;;;;;;;1.10;0.22;;;4.90;99.90;;;;;;4998381;28;20027;-80
2024/02/07 02:56:15;;;;;;;5.40;0.10;;;4.90;99.90;;;;;;4998511;28;20021;-81
2024/02/07 02:58:40;;;;;;;2.95;0.30;;;4.80;99.90;;;;;;4999347;28;20459;-80
2024/02/07 03:01:06;;;;;;;3.50;0.00;;;4.90;99.90;;;;;;4999963;28;20077;-80
2024/02/07 03:03:32;;;;;;;3.45;0.00;;;4.90;99.90;;;;;;5000803;28;20057;-80
2024/02/07 03:05:58;;;;;;;7.90;0.30;;;4.90;99.90;;;;;;4998721;28;20398;-81
2024/02/07 03:08:42;;;;;;;5.03;0.20;;;6.30;99.90;;;;;;4998661;28;20509;-80
2024/02/07 03:11:11;;;;;;;2.95;0.00;;;4.90;99.90;;;;;;4997985;28;20026;-80
2024/02/07 03:13:37;;;;;;;10.73;0.38;;;4.90;99.90;;;;;;4999615;28;20027;-80
2024/02/07 03:16:09;;;;;;;2.10;0.00;;;4.90;99.90;;;;;;4997856;28;20026;-80
2024/02/07 03:18:35;;;;;;;5.05;0.20;;;4.90;99.90;;;;;;4999814;28;20022;-80
2024/02/07 03:21:05;;;;;;;4.93;0.00;;;4.80;99.90;;;;;;4999381;28;20022;-80
2024/02/07 03:23:32;;;;;;;7.15;0.00;;;4.90;99.90;;;;;;4998867;28;20208;-80
2024/02/07 03:25:59;;;;;;;2.60;0.68;;;4.80;99.90;;;;;;4999413;28;20056;-81
2024/02/07 03:28:25;;;;;;;7.57;0.75;;;4.80;99.90;;;;;;4999192;28;20015;-80
2024/02/07 03:30:51;;;;;;;7.13;0.45;;;5.50;99.90;;;;;;4997891;28;20026;-80
2024/02/07 03:33:17;;;;;;;4.07;0.25;;;4.80;99.90;;;;;;4997704;28;20026;-80
2024/02/07 03:35:43;;;;;;;3.03;0.10;;;4.70;99.90;;;;;;4999009;28;20069;-80
2024/02/07 03:38:08;;;;;;;7.45;0.00;;;4.70;99.90;;;;;;4997728;28;20113;-80
2024/02/07 03:40:34;;;;;;;3.90;0.30;;;4.70;99.90;;;;;;4998961;28;20069;-80
2024/02/07 03:43:00;;;;;;;3.53;0.22;;;4.70;99.90;;;;;;4998525;28;20028;-79
2024/02/07 03:45:28;;;;;;;2.05;0.00;;;4.70;99.90;;;;;;5006336;28;20030;-81
2024/02/07 03:47:54;;;;;;;3.35;0.20;;;4.70;99.90;;;;;;5009614;28;20030;-81
2024/02/07 03:50:25;;;;;;;1.52;0.17;;;4.70;99.90;;;;;;5009502;28;20030;-80
2024/02/07 03:52:51;;;;;;;3.40;0.20;;;4.70;99.90;;;;;;5006640;28;20026;-80
2024/02/07 03:55:18;;;;;;;4.43;0.80;;;4.70;99.90;;;;;;5007056;28;20099;-81
2024/02/07 03:57:44;;;;;;;2.40;0.00;;;4.70;99.90;;;;;;5006173;28;20022;-81
2024/02/07 04:00:13;;;;;;;4.10;0.13;;;4.70;99.90;;;;;;5001608;28;20037;-81
2024/02/07 04:02:40;;;;;;;1.80;0.00;;;4.70;99.90;;;;;;5006043;28;20482;-81
2024/02/07 04:05:09;;;;;;;2.80;0.00;;;4.80;99.90;;;;;;5001164;28;20061;-81
2024/02/07 04:07:35;;;;;;;1.85;0.00;;;;;;;;;;5002213;28;20033;-81
2024/02/07 04:10:03;;;;;;;4.80;0.08;;;4.80;99.90;;;;;;5000772;28;20010;-81
2024/02/07 05:17:30;;;;;;;5.38;0.52;;;;;;;;;;5008490;28;20117;-80
2024/02/07 05:19:57;;;;;;;4.25;0.52;;;;;;;;;;5005830;28;20158;-81
2024/02/07 05:22:23;;;;;;;3.83;0.00;;;4.80;99.90;;;;;;5006196;28;20397;-80
2024/02/07 05:24:51;;;;;;;3.08;0.00;;;4.80;99.90;;;;;;5003909;28;20019;-80
2024/02/07 05:27:17;;;;;;;2.60;0.00;;;4.70;99.90;;;;;;5008820;28;20018;-80
2024/02/07 05:29:43;;;;;;;3.15;0.30;;;4.80;99.90;;;;;;5006779;28;20027;-80
2024/02/07 05:32:09;;;;;;;1.65;0.05;;;5.20;99.90;;;;;;5008899;28;20073;-81
2024/02/07 05:34:35;;;;;;;3.05;0.00;;;4.70;99.90;;;;;;5005085;28;20031;-81
2024/02/07 05:37:01;;;;;;;1.55;0.38;;;4.70;99.90;;;;;;5008293;28;20023;-81
2024/02/07 05:39:31;;;;;;;5.57;0.22;;;4.70;99.90;;;;;;5008770;28;20049;-80
2024/02/07 05:41:58;;;;;;;7.10;0.20;;;4.60;99.90;;;;;;5009683;28;20422;-81
2024/02/07 05:44:24;;;;;;;3.17;0.00;;;;;;;;;;5008024;28;20022;-81
2024/02/07 05:46:49;;;;;;;8.65;0.70;;;4.60;99.90;;;;;;5008687;28;20078;-81
2024/02/07 05:49:15;;;;;;;7.60;0.10;;;;;;;;;;5010675;28;20067;-81
2024/02/07 05:51:42;;;;;;;4.20;0.00;;;;;;;;;;5009764;28;20107;-81
2024/02/07 05:54:08;;;;;;;6.03;0.03;;;;;;;;;;5010323;28;20038;-80
2024/02/07 05:56:34;;;;;;;5.15;0.10;;;4.60;99.90;;;;;;5011410;28;20498;-80
2024/02/07 05:59:00;;;;;;;3.92;0.32;;;;;;;;;;5009681;28;20045;-81
2024/02/07 06:01:29;;;;;;;3.72;0.38;;;4.60;99.90;;;;;;5007308;28;20023;-80
2024/02/07 06:03:55;;;;;;;2.47;0.10;;;7.30;99.90;;;;;;5011494;28;20027;-81
2024/02/07 06:06:23;;;;;;;4.47;0.00;;;4.60;99.90;;;;;;5005518;28;20097;-80
2024/02/07 06:08:52;;;;;;;0.98;0.00;;;4.60;99.90;;;;;;5011374;28;20022;-81
2024/02/07 06:11:21;;;;;;;6.85;1.20;;;4.50;99.90;;;;;;5011702;28;20026;-80
2024/02/07 06:13:47;;;;;;;5.65;0.10;;;;;;;;;;5011590;28;20433;-81
2024/02/07 06:16:13;;;;;;;6.45;0.20;;;4.50;99.90;;;;;;5011805;28;20023;-81
2024/02/07 06:18:39;;;;;;;5.22;0.00;;;4.50;99.90;;;;;;5010727;28;20449;-81
2024/02/07 06:21:04;;;;;;;4.10;0.08;;;4.50;99.90;;;;;;5011589;28;20590;-82
2024/02/07 06:23:30;;;;;;;6.68;0.57;;;4.50;99.90;;;;;;5011801;28;20506;-81
2024/02/07 06:25:56;;;;;;;5.32;0.77;;;;;;;;;;5013394;28;20053;-82
2024/02/07 06:28:22;;;;;;;4.68;0.10;;;;;;;;;;5013005;28;20034;-81
2024/02/07 06:30:48;;;;;;;10.57;0.73;;;4.50;99.90;;;;;;5011884;28;20037;-80
2024/02/07 06:33:15;;;;;;;5.47;0.00;;;;;;;;;;5012552;28;20027;-81
2024/02/07 06:35:41;;;;;;;3.88;0.20;;;;;;;;;;5011665;28;20030;-81
2024/02/07 06:38:07;;;;;;;5.60;0.63;;;;;;;;;;5013262;28;20102;-83
2024/02/07 06:40:33;;;;;;;6.35;0.35;;;;;;;;;;5013419;28;20038;-81
2024/02/07 06:42:58;;;;;;;2.88;0.25;;;4.50;99.90;;;;;;5009928;28;20030;-81
2024/02/07 06:45:24;;;;;;;4.10;0.00;;;4.50;99.90;;;;;;5010031;28;20090;-82
2024/02/07 06:47:50;;;;;;;2.80;0.10;;;4.50;99.90;;;;;;5008195;28;20019;-81
2024/02/07 06:50:15;;;;;;;3.95;0.00;;;4.60;99.90;;;;;;5010141;28;20030;-80
2024/02/07 06:52:41;;;;;;;2.30;0.00;;;4.60;99.90;;;;;;5009953;28;20049;-81
2024/02/07 06:55:07;;;;;;;10.75;0.10;;;;;;;;;;5010237;28;20030;-81
2024/02/07 06:57:33;;;;;;;3.33;0.95;;;4.50;99.90;;;;;;5011540;28;20011;-81
2024/02/07 06:59:59;;;;;;;3.78;0.47;;;4.50;99.90;;;;;;5009850;28;20033;-81
2024/02/07 07:02:24;;;;;;;9.88;0.00;;;4.40;99.90;;;;;;5012240;28;20385;-79
2024/02/07 07:04:50;;;;;;;2.22;0.13;;;;;;;;;;5012323;28;20074;-82
2024/02/07 07:07:16;;;;;;;8.63;0.30;;;;;;;;;;5013045;28;20030;-81
2024/02/07 07:09:42;;;;;;;4.30;0.55;;;;;;;;;;5010607;28;20106;-81
2024/02/07 07:12:08;;;;;;;8.65;0.55;;;;;;;;;;5012394;28;20030;-82
2024/02/07 07:14:41;;;;;;;3.22;0.00;;;4.40;99.90;;;;;;5014014;28;20018;-82
2024/02/07 07:17:07;;;;;;;7.25;0.20;;;4.40;99.90;;;;;;5012645;28;20015;-81
2024/02/07 07:19:33;;;;;;;2.67;0.05;;;;;;;;;;5017346;28;20026;-82
2024/02/07 07:21:59;;;;;;;7.90;0.50;;;;;;;;;;5016477;28;20026;-81
2024/02/07 07:24:25;;;;;;;3.55;0.57;;;;;;;;;;5016105;28;20053;-82
2024/02/07 07:26:51;;;;;;;6.40;0.30;;;;;;;;;;5017979;28;20030;-81
2024/02/07 07:29:17;;;;;;;5.20;0.30;;;;;;;;;;5014305;28;20022;-81
2024/02/07 07:31:44;;;;;;;9.48;0.30;;;4.40;99.90;;;;;;5016035;28;20102;-81
2024/02/07 07:34:09;;;;;;;3.92;0.32;;;5.80;99.90;;;;;;5017989;28;20026;-81
2024/02/07 07:36:35;;;;;;;16.42;0.32;;;4.40;99.90;;;;;;5018925;28;20038;-82
2024/02/07 07:39:01;;;;;;;3.78;0.22;;;4.40;99.90;;;;;;5017268;28;20109;-80
2024/02/07 07:41:27;;;;;;;6.65;0.40;;;4.40;99.90;;;;;;5014976;28;20103;-82
2024/02/07 07:43:53;;;;;;;5.50;0.10;;;;;;;;;;5014568;28;20030;-81
2024/02/07 07:46:19;;;;;;;5.05;0.13;;;;;;;;;;5016280;28;20037;-81
2024/02/07 07:48:45;;;;;;;3.78;0.40;;;4.50;99.90;;;;;;5014968;28;20030;-81
2024/02/07 07:51:12;;;;;;;5.13;0.00;;;4.40;99.90;;;;;;5016642;28;20009;-82
2024/02/07 07:53:38;;;;;;;9.70;0.30;;;5.50;99.90;;;;;;5015151;28;20030;-81
2024/02/07 07:56:05;;;;;;;12.60;1.00;;;4.50;99.90;;;;;;5014827;28;20045;-79
2024/02/07 07:58:37;;;;;;;3.17;0.25;;;;;;;;;;5015350;28;20023;-81
2024/02/07 08:01:11;;;;;;;5.95;0.10;;;4.60;99.90;;;;;;5014970;28;20026;-81
2024/02/07 08:03:37;;;;;;;5.25;0.80;;;;;;;;;;5015577;28;20030;-81
2024/02/07 08:06:03;;;;;;;6.75;0.10;;;4.60;99.90;;;;;;5016268;28;20033;-81
2024/02/07 08:08:29;;;;;;;5.38;0.00;;;;;;;;;;5016841;28;20006;-82
2024/02/07 08:10:54;;;;;;;4.20;0.20;;;4.60;99.90;;;;;;5017245;28;20030;-81
2024/02/07 08:13:20;;;;;;;8.10;0.47;;;4.60;99.90;;;;;;5017153;28;20073;-82
2024/02/07 08:15:46;;;;;;;7.30;0.47;;;4.70;99.90;;;;;;5016303;28;20031;-83
2024/02/07 08:18:12;;;;;;;8.27;0.10;;;;;;;;;;5015868;28;20019;-80
2024/02/07 08:20:38;;;;;;;4.30;0.40;;;;;;;;;;5016834;28;20030;-81
2024/02/07 08:23:06;;;;;;;3.35;0.15;;;4.70;99.90;;;;;;5014078;28;20030;-84
2024/02/07 08:25:33;;;;;;;6.35;0.70;;;;;;;;;;5013801;28;20022;-81
2024/02/07 08:27:59;;;;;;;7.25;0.30;;;;;;;;;;5015966;28;20481;-81
2024/02/07 08:30:24;;;;;;;10.25;0.32;;;4.80;99.90;;;;;;5015019;28;20041;-81
2024/02/07 08:32:50;;;;;;;8.25;0.73;;;4.80;99.90;;;;;;5016820;28;20015;-80
2024/02/07 08:35:16;;;;;;;2.78;0.25;;;;;;;;;;5016244;28;20044;-81
2024/02/07 08:37:43;;;;;;;9.13;0.30;;;4.90;99.90;;;;;;5015975;28;20098;-81
2024/02/07 08:40:09;;;;;;;8.38;0.88;;;4.90;99.90;;;;;;5017607;28;20023;-83
2024/02/07 08:42:37;;;;;;;10.35;0.10;;;;;;;;;;5017310;28;20053;-83
2024/02/07 08:45:03;;;;;;;7.20;0.10;;;4.90;99.90;;;;;;5016507;28;20017;-82
2024/02/07 08:47:29;;;;;;;5.40;0.20;;;;;;;;;;5017828;28;20032;-82
2024/02/07 08:49:56;;;;;;;14.30;0.98;;;4.90;99.90;;;;;;5016159;28;20015;-82
2024/02/07 08:52:22;;;;;;;8.50;0.65;;;;;;;;;;5018183;28;20018;-82
2024/02/07 08:54:48;;;;;;;12.48;0.57;;;5.00;99.90;;;;;;5017278;28;20057;-81
2024/02/07 08:57:14;;;;;;;10.50;0.45;;;5.00;99.90;;;;;;5017075;28;20090;-81
2024/02/07 08:59:40;;;;;;;14.25;1.48;;;5.10;99.90;;;;;;5016866;28;20023;-82
2024/02/07 09:02:09;;;;;;;3.03;0.10;;;5.20;99.90;;;;;;5015515;28;20082;-82
2024/02/07 09:04:35;;;;;;;5.70;0.65;;;;;;;;;;5017670;28;20050;-84
2024/02/07 09:07:01;;;;;;;13.38;0.70;;;;;;;;;;5017008;28;20010;-82
2024/02/07 09:09:30;;;;;;;9.25;0.28;;;;;;;;;;5016847;28;20032;-82
2024/02/07 09:11:56;;;;;;;19.77;0.75;;;;;;;;;;5017064;28;20030;-82
2024/02/07 09:14:22;;;;;;;13.18;1.00;;;;;;;;;;5016095;28;20077;-82
2024/02/07 09:16:47;;;;;;;8.95;0.90;;;5.60;99.90;;;;;;5015551;28;20030;-83
2024/02/07 09:19:14;;;;;;;10.95;1.63;;;5.70;99.90;;;;;;5015336;28;20030;-81
2024/02/07 09:21:40;;;;;;;8.70;0.28;;;;;;;;;;5015900;28;20022;-83
2024/02/07 09:24:07;;;;;;;11.73;1.10;;;;;;;;;;5015392;28;20026;-82
2024/02/07 09:26:33;;;;;;;9.27;0.65;;;;;;;;;;5015795;28;20030;-82
2024/02/07 09:28:59;;;;;;;10.00;0.22;;;;;;;;;;5014642;28;20094;-81
2024/02/07 09:31:25;;;;;;;9.35;1.23;;;5.90;99.90;;;;;;5011988;28;20046;-82
2024/02/07 09:33:51;;;;;;;8.93;0.75;;;6.00;99.90;;;;;;5011966;28;20379;-83
2024/02/07 09:36:16;;;;;;;20.10;1.35;;;6.00;99.90;;;;;;5012071;28;20074;-84
2024/02/07 09:38:42;;;;;;;12.23;0.30;;;6.00;99.90;;;;;;5010702;28;20030;-83
2024/02/07 09:41:08;;;;;;;16.15;0.85;;;6.10;99.90;;;;;;5010270;28;20042;-82
2024/02/07 09:43:34;;;;;;;8.88;0.17;;;;;;;;;;5009571;28;20482;-82
2024/02/07 09:46:05;;;;;;;16.05;0.68;;;6.10;99.90;;;;;;5010020;28;20030;-83
2024/02/07 09:48:31;;;;;;;5.18;0.60;;;6.50;99.90;;;;;;5011302;28;20474;-82
2024/02/07 09:50:58;;;;;;;12.98;0.47;;;;;;;;;;5011170;28;20492;-83
2024/02/07 09:53:25;;;;;;;11.63;0.85;;;6.10;99.90;;;;;;5011445;28;20038;-83
2024/02/07 09:55:52;;;;;;;12.35;0.17;;;6.10;99.90;;;;;;5012224;28;20018;-83
2024/02/07 09:58:22;;;;;;;14.15;1.35;;;6.20;99.90;;;;;;5009757;28;20069;-83
2024/02/07 10:00:52;;;;;;;12.52;1.35;;;6.10;99.90;;;;;;5011250;28;20045;-83
2024/02/07 10:03:25;;;;;;;9.40;0.82;;;6.30;99.90;;;;;;5011047;28;20026;-83
2024/02/07 10:05:53;;;;;;;8.02;0.30;;;6.40;99.90;;;;;;5011372;28;20097;-84
2024/02/07 10:08:20;;;;;;;8.65;1.02;;;6.50;99.90;;;;;;5010112;28;20026;-84
2024/02/07 10:10:47;;;;;;;12.05;0.57;;;6.50;99.90;;;;;;5009552;28;20034;-84
2024/02/07 10:13:17;;;;;;;15.20;0.63;;;6.60;99.90;;;;;;5010373;28;20026;-83
2024/02/07 10:15:43;;;;;;;15.18;1.73;;;6.60;99.90;;;;;;4992953;28;20030;-82
2024/02/07 10:18:12;;;;;;;7.47;0.82;;;6.70;99.90;;;;;;5009001;28;20018;-83
2024/02/07 10:20:38;;;;;;;15.20;0.98;;;;;;;;;;5008792;28;20030;-83
2024/02/07 10:23:06;;;;;;;15.95;1.13;;;6.90;99.90;;;;;;5008915;28;20037;-83
2024/02/07 10:25:32;;;;;;;19.13;1.52;;;;;;;;;;5009273;28;20094;-83
2024/02/07 10:28:06;;;;;;;7.00;0.20;;;7.00;99.90;;;;;;5009286;28;20030;-83
2024/02/07 10:30:32;;;;;;;13.38;0.63;;;7.10;99.90;;;;;;5010048;28;20035;-83
2024/02/07 10:32:58;;;;;;;8.90;0.95;;;7.10;99.90;;;;;;5009871;28;20068;-82
2024/02/07 10:35:24;;;;;;;14.23;2.83;;;7.10;99.90;;;;;;5009738;28;20022;-83
2024/02/07 10:37:55;;;;;;;10.10;0.60;;;7.20;99.90;;;;;;5009839;28;20017;-82
2024/02/07 10:40:21;;;;;;;13.25;0.45;;;7.20;99.90;;;;;;5010147;28;20098;-82
2024/02/07 10:42:55;;;;;;;11.00;1.33;;;7.20;99.90;;;;;;5009246;28;20015;-83
2024/02/07 10:45:20;;;;;;;10.75;0.28;;;7.30;99.90;;;;;;5009306;28;20049;-82
2024/02/07 10:47:46;;;;;;;7.22;0.25;;;7.30;99.90;;;;;;5008312;28;20034;-82
2024/02/07 10:50:12;;;;;;;8.50;0.10;;;7.40;99.90;;;;;;5009108;28;20532;-82
2024/02/07 10:52:41;;;;;;;11.25;1.08;;;7.40;99.90;;;;;;5009984;28;20033;-82
2024/02/07 10:55:09;;;;;;;6.70;0.20;;;7.50;99.90;;;;;;5012237;28;20069;-82
2024/02/07 10:57:39;;;;;;;8.50;0.60;;;7.50;99.90;;;;;;5012287;28;20505;-83
2024/02/07 11:00:06;;;;;;;9.63;0.50;;;7.50;99.90;;;;;;5011845;28;20021;-82
2024/02/07 11:02:32;;;;;;;10.40;1.17;;;7.70;99.90;;;;;;5013947;28;20044;-82
2024/02/07 11:04:59;;;;;;;5.82;0.98;;;7.80;99.90;;;;;;5012108;28;20085;-84
2024/02/07 11:07:26;;;;;;;8.68;0.47;;;7.80;99.90;;;;;;5013269;28;20042;-82
2024/02/07 11:09:52;;;;;;;4.05;0.00;;;7.90;99.90;;;;;;5011996;28;20026;-83
2024/02/07 11:12:18;;;;;;;10.63;1.42;;;7.80;99.90;;;;;;5011927;28;20031;-83
2024/02/07 11:14:46;;;;;;;7.10;0.70;;;7.80;99.90;;;;;;5012234;28;20029;-83
2024/02/07 11:17:16;;;;;;;7.00;0.20;;;7.90;99.90;;;;;;5013104;28;20022;-83
2024/02/07 11:19:47;;;;;;;16.15;0.57;;;7.90;99.90;;;;;;5012404;28;20018;-83
2024/02/07 11:22:33;;;;;;;9.88;0.80;;;7.90;99.90;;;;;;5012359;28;20030;-83
2024/02/07 11:24:59;;;;;;;7.22;0.30;;;8.00;99.90;;;;;;5012959;28;20026;-83
2024/02/07 11:27:25;;;;;;;7.72;0.88;;;8.00;99.90;;;;;;5011940;28;20080;-83
2024/02/07 11:29:51;;;;;;;9.57;1.38;;;;;;;;;;5012454;28;20023;-82
2024/02/07 11:32:17;;;;;;;7.53;0.10;;;8.00;99.90;;;;;;5011686;28;20125;-82
2024/02/07 11:34:50;;;;;;;7.35;0.20;;;8.00;99.90;;;;;;5011674;28;20022;-83
2024/02/07 11:37:18;;;;;;;7.43;0.32;;;8.00;99.90;;;;;;5011043;28;20434;-83
2024/02/07 11:39:44;;;;;;;12.30;1.17;;;8.00;99.90;;;;;;5012025;28;20061;-83
2024/02/07 11:42:14;;;;;;;5.25;0.20;;;8.00;99.90;;;;;;5012334;28;20026;-83
2024/02/07 11:44:59;;;;;;;5.90;0.00;;;8.10;99.90;;;;;;5011664;28;20513;-83
2024/02/07 11:47:26;;;;;;;7.22;0.10;;;8.00;99.90;;;;;;5012985;28;20394;-83
2024/02/07 11:49:57;;;;;;;10.73;0.30;;;8.00;99.90;;;;;;5012830;28;20046;-83
2024/02/07 11:52:31;;;;;;;6.82;0.35;;;8.10;99.90;;;;;;5012810;28;20031;-83
2024/02/07 11:55:03;;;;;;;10.82;0.30;;;8.20;99.90;;;;;;5013888;28;20048;-83
2024/02/07 11:57:32;;;;;;;3.92;0.00;;;8.40;99.90;;;;;;5013077;28;20034;-83
2024/02/07 12:00:02;;;;;;;;;;;8.70;99.90;;;;;;5013826;28;20014;-83
2024/02/07 12:02:28;;;;;;;11.05;0.63;;;8.90;99.90;;;;;;5012905;28;19969;-82
2024/02/07 12:04:55;;;;;;;8.88;0.43;;;9.00;99.90;;;;;;5013754;28;20033;-83
2024/02/07 12:07:21;;;;;;;7.07;0.70;;;;;;;;;;5013337;28;20030;-83
2024/02/07 12:09:46;;;;;;;6.63;0.10;;;9.00;99.90;;;;;;5012638;28;20042;-83
2024/02/07 12:12:12;;;;;;;18.00;0.60;;;9.00;99.90;;;;;;5012080;28;20030;-83
2024/02/07 12:14:42;;;;;;;7.05;0.52;;;8.90;99.90;;;;;;5014014;28;20011;-83
2024/02/07 12:17:08;;;;;;;5.75;0.47;;;9.00;99.90;;;;;;5013177;28;20023;-83
2024/02/07 12:19:36;;;;;;;9.15;0.40;;;9.10;99.90;;;;;;5012826;28;20038;-83
2024/02/07 12:22:02;;;;;;;8.57;0.20;;;9.00;99.90;;;;;;5011461;28;20049;-83
2024/02/07 12:24:33;;;;;;;6.45;0.05;;;9.10;99.90;;;;;;5011990;28;20042;-82
2024/02/07 12:27:15;;;;;;;10.05;0.52;;;9.20;99.90;;;;;;5012340;28;20033;-82
2024/02/07 12:29:56;;;;;;;7.35;1.45;;;9.40;99.90;;;;;;5012436;28;20030;-84
2024/02/07 12:32:22;;;;;;;5.05;0.63;;;9.50;99.90;;;;;;5013485;28;20113;-83
2024/02/07 12:34:48;;;;;;;6.90;0.45;;;9.50;99.90;;;;;;5012330;28;20018;-83
2024/02/07 12:37:16;;;;;;;8.32;0.60;;;9.70;99.90;;;;;;5012643;28;20026;-83
2024/02/07 12:39:43;;;;;;;8.02;0.25;;;;;;;;;;5011676;28;20070;-83
2024/02/07 12:42:20;;;;;;;3.13;0.10;;;9.80;99.90;;;;;;5011031;28;20045;-83
2024/02/07 12:44:49;;;;;;;2.88;0.15;;;10.00;99.90;;;;;;5011430;28;20085;-84
2024/02/07 12:47:15;;;;;;;4.28;0.10;;;10.30;99.90;;;;;;5010245;28;20058;-84
2024/02/07 12:49:41;;;;;;;7.20;0.70;;;10.30;99.90;;;;;;5009709;28;20490;-83
2024/02/07 12:52:08;;;;;;;7.47;0.10;;;;;;;;;;5011015;28;20027;-84
2024/02/07 12:54:35;;;;;;;5.68;0.15;;;10.30;99.90;;;;;;5009492;28;20030;-84
2024/02/07 12:57:00;;;;;;;7.35;0.17;;;10.20;99.90;;;;;;5010062;28;20023;-83
2024/02/07 12:59:32;;;;;;;4.45;0.15;;;10.10;99.90;;;;;;5010459;28;20033;-82
2024/02/07 13:01:58;;;;;;;7.90;0.75;;;;;;;;;;5011592;28;20077;-83
2024/02/07 13:04:24;;;;;;;4.22;0.00;;;10.10;99.90;;;;;;5010131;28;20034;-83
2024/02/07 13:06:50;;;;;;;8.52;0.63;;;;;;;;;;5010481;28;20023;-84
2024/02/07 13:09:16;;;;;;;5.75;0.00;;;9.90;99.90;;;;;;5010509;28;20037;-83
2024/02/07 13:11:41;;;;;;;9.52;0.25;;;9.80;99.90;;;;;;5009287;28;20034;-83
2024/02/07 13:14:10;;;;;;;4.38;1.25;;;9.70;99.90;;;;;;5008315;28;20034;-83
2024/02/07 13:16:36;;;;;;;14.60;0.47;;;9.70;99.90;;;;;;5007064;28;20027;-83
2024/02/07 13:19:01;;;;;;;3.63;0.00;;;9.70;99.90;;;;;;5006512;28;20023;-83
2024/02/07 13:21:28;;;;;;;4.72;0.17;;;9.60;99.90;;;;;;5006882;28;20049;-83
2024/02/07 13:23:54;;;;;;;12.18;0.63;;;;;;;;;;5008589;28;20018;-84
2024/02/07 13:26:21;;;;;;;4.93;0.43;;;9.60;99.90;;;;;;5010179;28;20030;-83
2024/02/07 13:28:56;;;;;;;7.05;0.20;;;9.50;99.90;;;;;;5010930;28;20019;-83
2024/02/07 13:31:22;;;;;;;10.80;0.77;;;9.50;99.90;;;;;;5008599;28;20026;-83
2024/02/07 13:33:48;;;;;;;4.55;0.10;;;;;;;;;;5008538;28;20409;-83
2024/02/07 13:36:14;;;;;;;6.38;0.52;;;;;;;;;;5009922;28;20528;-83
2024/02/07 13:38:40;;;;;;;6.70;0.90;;;9.10;99.90;;;;;;5008609;28;20022;-83
2024/02/07 13:41:09;;;;;;;4.80;0.55;;;9.00;99.90;;;;;;5008914;28;20049;-83
2024/02/07 13:43:35;;;;;;;4.97;0.30;;;;;;;;;;5009810;28;20098;-83
2024/02/07 13:46:01;;;;;;;4.82;0.35;;;8.90;99.90;;;;;;5009955;28;20034;-83
2024/02/07 13:48:28;;;;;;;6.20;0.10;;;8.90;99.90;;;;;;5010952;28;20082;-82
2024/02/07 13:50:54;;;;;;;8.60;0.50;;;8.90;99.90;;;;;;5009136;28;20034;-83
2024/02/07 13:53:20;;;;;;;7.07;0.08;;;8.80;99.90;;;;;;5009728;28;20395;-83
2024/02/07 13:55:46;;;;;;;4.53;0.45;;;;;;;;;;5008374;28;20029;-84
2024/02/07 13:58:11;;;;;;;10.15;1.20;;;8.80;99.90;;;;;;5009000;28;20030;-82
2024/02/07 14:00:37;;;;;;;12.18;0.45;;;8.70;99.90;;;;;;5008573;28;20026;-83
2024/02/07 14:03:03;;;;;;;8.50;0.47;;;8.70;99.90;;;;;;5006951;28;20486;-83
2024/02/07 14:05:29;;;;;;;3.75;0.15;;;8.70;99.90;;;;;;5006215;28;20038;-84
2024/02/07 14:07:55;;;;;;;4.93;0.10;;;8.70;99.90;;;;;;5008045;28;20050;-83
2024/02/07 14:10:20;;;;;;;4.35;0.28;;;8.70;99.90;;;;;;5007566;28;20090;-83
2024/02/07 14:12:46;;;;;;;12.40;0.68;;;10.00;99.90;;;;;;5008818;28;20053;-83
2024/02/07 14:15:13;;;;;;;11.32;0.35;;;8.50;99.90;;;;;;5006169;28;20026;-83
2024/02/07 14:17:40;;;;;;;3.08;0.13;;;;;;;;;;5006336;28;20003;-83
2024/02/07 14:20:06;;;;;;;3.70;0.40;;;8.40;99.90;;;;;;5007683;28;20022;-83
2024/02/07 14:22:32;;;;;;;4.25;0.63;;;8.30;99.90;;;;;;5006354;28;20030;-83
2024/02/07 14:24:58;;;;;;;11.30;0.80;;;;;;;;;;5006832;28;20042;-83